createdAt,value
2022-08-10T00:01:54.697Z,100193.94
2022-08-10T00:04:23.940Z,100217.75
2022-08-10T00:06:56.480Z,100210.94
2022-08-10T00:09:24.502Z,100213.88
2022-08-10T00:11:53.496Z,100221.31
2022-08-10T00:14:21.393Z,100208.59
2022-08-10T00:16:49.082Z,100214.13
2022-08-10T00:19:18.415Z,100207.94
2022-08-10T00:21:47.582Z,100199.44
2022-08-10T00:24:16.346Z,100190.91
2022-08-10T00:27:52.304Z,100202.63
2022-08-10T00:29:31.219Z,100201.13
2022-08-10T00:31:59.593Z,100196.00
2022-08-10T00:34:32.511Z,100197.47
2022-08-10T00:37:00.954Z,100184.50
2022-08-10T00:39:29.774Z,100186.63
2022-08-10T00:42:06.603Z,100198.09
2022-08-10T00:44:42.681Z,100186.41
2022-08-10T00:47:35.628Z,100182.75
2022-08-10T00:49:59.060Z,100181.34
2022-08-10T00:52:32.633Z,100186.00
2022-08-10T00:55:05.138Z,100191.72
2022-08-10T00:57:33.530Z,100187.00
2022-08-10T01:00:01.683Z,100191.13
2022-08-10T01:02:34.159Z,100194.94
2022-08-10T01:05:07.653Z,100195.13
2022-08-10T01:07:49.992Z,100182.09
2022-08-10T01:10:49.938Z,100189.13
2022-08-10T01:13:26.776Z,100189.19
2022-08-10T01:16:04.798Z,100184.50
2022-08-10T01:18:44.067Z,100180.59
2022-08-10T01:21:56.816Z,100184.00
2022-08-10T01:25:11.305Z,100185.84
2022-08-10T01:27:59.516Z,100176.78
2022-08-10T01:30:30.836Z,100180.88
2022-08-10T01:33:13.158Z,100181.88
2022-08-10T01:35:59.885Z,100172.72
2022-08-10T01:38:32.651Z,100179.75
2022-08-10T01:41:06.718Z,100186.47
2022-08-10T01:43:37.405Z,100183.47
2022-08-10T01:46:07.653Z,100186.19
2022-08-10T01:48:40.394Z,100174.47
2022-08-10T01:51:16.506Z,100180.19
2022-08-10T01:53:54.858Z,100185.66
2022-08-10T01:56:26.012Z,100178.94
2022-08-10T01:58:59.533Z,100183.44
2022-08-10T02:01:32.880Z,100186.56
2022-08-10T02:04:06.358Z,100193.13
2022-08-10T02:06:42.467Z,100191.16
2022-08-10T02:09:13.343Z,100194.53
2022-08-10T02:12:06.212Z,100144.69
2022-08-10T02:14:34.995Z,100179.28
2022-08-10T02:17:06.538Z,100198.84
2022-08-10T02:19:39.129Z,100191.28
2022-08-10T02:22:36.277Z,100189.44
2022-08-10T02:24:58.026Z,100195.31
2022-08-10T02:27:27.981Z,100191.44
2022-08-10T02:29:57.938Z,100195.19
2022-08-10T02:32:37.852Z,100197.94
2022-08-10T02:35:22.250Z,100185.78
2022-08-10T02:37:53.574Z,100190.59
2022-08-10T02:45:00.994Z,100187.63
2022-08-10T02:45:21.829Z,100190.16
2022-08-10T02:46:41.472Z,100181.66
2022-08-10T02:49:18.456Z,100198.00
2022-08-10T02:52:07.331Z,100191.16
2022-08-10T02:54:54.178Z,100190.03
2022-08-10T02:57:28.797Z,100187.22
2022-08-10T03:00:04.752Z,100192.28
2022-08-10T03:02:42.552Z,100193.03
2022-08-10T03:05:12.550Z,100193.41
2022-08-10T03:07:52.163Z,100192.03
2022-08-10T03:10:23.858Z,100188.31
2022-08-10T03:12:58.998Z,100193.59
2022-08-10T03:15:29.617Z,100190.16
2022-08-10T03:17:59.088Z,100196.78
2022-08-10T03:20:36.503Z,100197.56
2022-08-10T03:23:19.395Z,100200.44
2022-08-10T03:25:53.313Z,100184.69
2022-08-10T03:28:24.969Z,100202.22
2022-08-10T03:30:53.262Z,100208.13
2022-08-10T03:33:22.864Z,100205.63
2022-08-10T03:36:42.227Z,100217.56
2022-08-10T03:38:41.041Z,100217.56
2022-08-10T03:41:11.823Z,100208.84
2022-08-10T03:43:48.201Z,100205.03
2022-08-10T03:46:19.110Z,100211.41
2022-08-10T03:48:50.051Z,100215.84
2022-08-10T03:51:22.099Z,100222.00
2022-08-10T03:54:05.350Z,100217.56
2022-08-10T03:56:37.841Z,100218.59
2022-08-10T03:59:07.937Z,100219.25
2022-08-10T04:02:52.197Z,100217.28
2022-08-10T04:04:26.153Z,100217.75
2022-08-10T04:07:00.913Z,100220.31
2022-08-10T04:09:53.453Z,100220.72
2022-08-10T04:12:19.500Z,100233.63
2022-08-10T04:14:50.867Z,100224.66
2022-08-10T04:18:01.169Z,100228.56
2022-08-10T04:20:32.067Z,100230.59
2022-08-10T04:23:09.299Z,100228.69
2022-08-10T04:25:38.673Z,100232.81
2022-08-10T04:28:07.972Z,100224.50
2022-08-10T04:30:37.189Z,100228.38
2022-08-10T04:33:07.060Z,100236.44
2022-08-10T04:35:35.726Z,100230.81
2022-08-10T04:38:06.038Z,100228.06
2022-08-10T04:40:33.331Z,100227.06
2022-08-10T04:43:11.305Z,100230.44
2022-08-10T04:45:49.011Z,100221.59
2022-08-10T04:48:43.270Z,100223.09
2022-08-10T04:51:17.602Z,100222.69
2022-08-10T04:54:02.784Z,100230.47
2022-08-10T04:56:38.601Z,100231.16
2022-08-10T04:59:08.017Z,100204.56
2022-08-10T05:02:22.567Z,100230.94
2022-08-10T05:04:36.151Z,100234.69
2022-08-10T05:07:11.289Z,100226.66
2022-08-10T05:10:02.740Z,100220.78
2022-08-10T05:12:37.640Z,100222.72
2022-08-10T05:15:12.327Z,100219.41
2022-08-10T05:17:40.830Z,100221.88
2022-08-10T05:20:11.303Z,100216.75
2022-08-10T05:22:41.921Z,100219.75
2022-08-10T05:25:12.706Z,100212.25
2022-08-10T05:27:42.052Z,100224.41
2022-08-10T05:30:13.632Z,100229.47
2022-08-10T05:32:58.438Z,100223.91
2022-08-10T05:35:28.400Z,100221.81
2022-08-10T05:38:09.766Z,100221.22
2022-08-10T05:40:46.106Z,100211.81
2022-08-10T05:43:17.670Z,100210.47
2022-08-10T05:46:17.054Z,100215.66
2022-08-10T05:48:56.193Z,100221.03
2022-08-10T05:51:22.465Z,100220.53
2022-08-10T05:54:01.308Z,100220.63
2022-08-10T05:56:56.456Z,100217.16
2022-08-10T06:00:34.973Z,100211.00
2022-08-10T06:02:45.573Z,100212.59
2022-08-10T06:05:25.649Z,100205.06
2022-08-10T06:08:01.144Z,100194.13
2022-08-10T06:10:35.301Z,100212.81
2022-08-10T06:13:34.403Z,100211.19
2022-08-10T06:16:10.770Z,100214.47
2022-08-10T06:18:40.838Z,100209.72
2022-08-10T06:21:09.876Z,100210.72
2022-08-10T06:23:39.390Z,100216.16
2022-08-10T06:26:13.408Z,100212.72
2022-08-10T06:29:02.505Z,100222.19
2022-08-10T06:31:47.465Z,100222.59
2022-08-10T06:34:42.377Z,100221.69
2022-08-10T06:37:11.619Z,100215.81
2022-08-10T06:39:39.220Z,100214.38
2022-08-10T06:42:21.006Z,100221.09
2022-08-10T06:45:08.921Z,100223.44
2022-08-10T06:48:05.596Z,100230.50
2022-08-10T06:50:58.235Z,100217.31
2022-08-10T06:53:51.985Z,100226.97
2022-08-10T06:56:36.166Z,100223.97
2022-08-10T06:59:22.999Z,100220.59
2022-08-10T07:01:53.882Z,100221.59
2022-08-10T07:04:35.444Z,100220.88
2022-08-10T07:07:05.994Z,100223.75
2022-08-10T07:09:38.157Z,100217.34
2022-08-10T07:12:09.384Z,100196.94
2022-08-10T07:14:45.619Z,100222.75
2022-08-10T07:17:17.784Z,100215.28
2022-08-10T07:19:52.485Z,100221.56
2022-08-10T07:23:08.319Z,100221.50
2022-08-10T07:25:27.420Z,100218.03
2022-08-10T07:27:58.607Z,100225.81
2022-08-10T07:30:31.109Z,100206.09
2022-08-10T07:33:00.749Z,100208.78
2022-08-10T07:35:36.432Z,100208.09
2022-08-10T07:38:31.616Z,100212.66
2022-08-10T07:41:03.433Z,100209.00
2022-08-10T07:43:36.587Z,100205.44
2022-08-10T07:46:05.876Z,100198.63
2022-08-10T07:48:49.179Z,100202.56
2022-08-10T07:51:20.232Z,100195.16
2022-08-10T07:53:51.850Z,100195.88
2022-08-10T07:56:45.849Z,100203.72
2022-08-10T07:59:12.999Z,100190.50
2022-08-10T08:01:48.677Z,100185.69
2022-08-10T08:04:22.560Z,100190.63
2022-08-10T08:06:51.658Z,100193.22
2022-08-10T08:09:20.750Z,100191.03
2022-08-10T08:11:53.717Z,100184.19
2022-08-10T08:14:23.151Z,100182.75
2022-08-10T08:16:53.521Z,100175.78
2022-08-10T08:19:37.373Z,100183.63
2022-08-10T08:24:05.690Z,100177.94
2022-08-10T08:24:59.197Z,100175.47
2022-08-10T08:27:28.835Z,100180.56
2022-08-10T08:29:58.436Z,100178.16
2022-08-10T08:32:28.544Z,100176.16
2022-08-10T08:35:03.807Z,100170.59
2022-08-10T08:38:29.851Z,100178.97
2022-08-10T08:40:33.808Z,100176.84
2022-08-10T08:43:38.898Z,100183.31
2022-08-10T08:46:36.942Z,100181.88
2022-08-10T08:50:08.208Z,100177.91
2022-08-10T08:52:39.818Z,100174.69
2022-08-10T08:56:04.493Z,100157.22
2022-08-10T08:58:43.772Z,100170.25
2022-08-10T09:01:20.077Z,100174.25
2022-08-10T09:04:21.106Z,100166.38
2022-08-10T09:07:59.689Z,100168.75
2022-08-10T09:10:24.668Z,100163.72
2022-08-10T09:13:05.163Z,100163.56
2022-08-10T09:15:58.651Z,100158.09
2022-08-10T09:18:43.037Z,100158.06
2022-08-10T09:21:19.979Z,100156.94
2022-08-10T09:24:04.817Z,100139.72
2022-08-10T09:26:45.995Z,100153.50
2022-08-10T09:29:30.020Z,100147.63
2022-08-10T09:36:15.541Z,100147.28
2022-08-10T09:36:25.997Z,100149.03
2022-08-10T09:38:12.125Z,100142.41
2022-08-10T09:41:01.056Z,100140.16
2022-08-10T09:43:29.881Z,100137.34
2022-08-10T09:46:37.690Z,100136.56
2022-08-10T09:49:17.389Z,100129.22
2022-08-10T09:52:25.311Z,100135.81
2022-08-10T09:55:15.054Z,100134.81
2022-08-10T09:57:59.147Z,100132.31
2022-08-10T10:00:41.996Z,100127.59
2022-08-10T10:03:45.642Z,100110.66
2022-08-10T10:06:36.931Z,100106.56
2022-08-10T10:09:27.362Z,100125.53
2022-08-10T10:12:10.005Z,100102.63
2022-08-10T10:15:24.026Z,100118.53
2022-08-10T10:18:08.034Z,100119.09
2022-08-10T10:21:07.916Z,100109.97
2022-08-10T10:24:22.383Z,100106.59
2022-08-10T10:27:06.645Z,100104.31
2022-08-10T10:29:58.629Z,100100.75
2022-08-10T10:32:38.920Z,100100.06
2022-08-10T10:35:12.076Z,100105.31
2022-08-10T10:38:03.021Z,100085.44
2022-08-10T10:40:33.085Z,100097.16
2022-08-10T10:43:38.530Z,100076.25
2022-08-10T10:46:22.970Z,100087.97
2022-08-10T10:49:13.866Z,100087.38
2022-08-10T10:51:50.532Z,100087.00
2022-08-10T10:54:36.136Z,100086.91
2022-08-10T10:57:18.538Z,100076.41
2022-08-10T11:00:12.108Z,100074.56
2022-08-10T11:03:17.109Z,100073.38
2022-08-10T11:05:53.335Z,100072.31
2022-08-10T11:08:29.185Z,100080.16
2022-08-10T11:11:03.365Z,100083.50
2022-08-10T11:14:25.777Z,100082.47
2022-08-10T11:16:50.760Z,100092.44
2022-08-10T11:20:01.644Z,100088.72
2022-08-10T11:22:54.075Z,100085.28
2022-08-10T11:25:33.419Z,100082.34
2022-08-10T11:28:16.949Z,100086.91
2022-08-10T11:31:18.819Z,100085.19
2022-08-10T11:34:48.522Z,100056.88
2022-08-10T11:37:16.504Z,100079.53
2022-08-10T11:40:05.983Z,100085.69
2022-08-10T11:42:55.331Z,100069.72
2022-08-10T11:45:29.430Z,100073.91
2022-08-10T11:48:53.415Z,100069.22
2022-08-10T11:51:10.061Z,100065.22
2022-08-10T11:53:45.386Z,100077.50
2022-08-10T11:56:24.920Z,100068.25
2022-08-10T11:59:16.700Z,100062.75
2022-08-10T12:01:47.646Z,100057.16
2022-08-10T12:04:17.699Z,100051.56
2022-08-10T12:06:56.408Z,100061.06
2022-08-10T12:10:05.135Z,100022.06
2022-08-10T12:12:14.325Z,100056.88
2022-08-10T12:14:53.268Z,100056.56
2022-08-10T12:17:50.315Z,100035.25
2022-08-10T12:20:36.238Z,100050.63
2022-08-10T12:23:22.160Z,100053.59
2022-08-10T12:26:16.480Z,100050.78
2022-08-10T12:28:54.481Z,100049.31
2022-08-10T12:31:38.087Z,100046.91
2022-08-10T12:34:20.445Z,100044.84
2022-08-10T12:36:57.922Z,100045.97
2022-08-10T12:39:30.297Z,100042.09
2022-08-10T12:42:06.139Z,100036.38
2022-08-10T12:45:06.093Z,100035.91
2022-08-10T12:47:56.165Z,100030.63
2022-08-10T12:50:34.084Z,100022.16
2022-08-10T12:53:16.912Z,100021.25
2022-08-10T12:55:46.537Z,100022.16
2022-08-10T12:58:57.959Z,100023.16
2022-08-10T13:01:16.606Z,100021.38
2022-08-10T13:04:23.666Z,100015.63
2022-08-10T13:06:46.838Z,100013.00
2022-08-10T13:09:23.859Z,99995.97
2022-08-10T13:12:18.321Z,100010.31
2022-08-10T13:15:47.708Z,100011.84
2022-08-10T13:18:01.894Z,99990.72
2022-08-10T13:20:35.783Z,99996.91
2022-08-10T13:23:11.924Z,99993.81
2022-08-10T13:25:43.652Z,100002.69
2022-08-10T13:28:36.666Z,99994.78
2022-08-10T13:31:06.406Z,100000.41
2022-08-10T13:34:36.604Z,100014.97
2022-08-10T13:36:42.002Z,100016.75
2022-08-10T13:39:12.814Z,100018.69
2022-08-10T13:41:44.553Z,100030.06
2022-08-10T13:44:18.829Z,100042.84
2022-08-10T13:46:55.119Z,100051.28
2022-08-10T13:49:24.259Z,100049.56
2022-08-10T13:51:56.753Z,100045.28
2022-08-10T13:54:29.467Z,100044.78
2022-08-10T13:56:58.253Z,100038.63
2022-08-10T14:00:33.969Z,100047.91
2022-08-10T14:02:35.391Z,100029.91
2022-08-10T14:05:06.751Z,100043.94
2022-08-10T14:07:40.082Z,100052.31
2022-08-10T14:11:08.410Z,100032.41
2022-08-10T14:13:36.207Z,100033.75
2022-08-10T14:16:08.237Z,100034.59
2022-08-10T14:18:37.032Z,100042.91
2022-08-10T14:21:05.935Z,100037.47
2022-08-10T14:23:40.701Z,100048.84
2022-08-10T14:26:11.589Z,100039.72
2022-08-10T14:28:46.946Z,100035.06
2022-08-10T14:31:21.837Z,100042.47
2022-08-10T14:33:56.559Z,100044.38
2022-08-10T14:36:32.100Z,100030.66
2022-08-10T14:39:02.792Z,100024.28
2022-08-10T14:42:01.748Z,100034.56
2022-08-10T14:44:21.870Z,100034.34
2022-08-10T14:46:56.116Z,100028.84
2022-08-10T14:49:26.153Z,100026.16
2022-08-10T14:52:01.910Z,100020.63
2022-08-10T14:54:32.575Z,100033.69
2022-08-10T14:57:11.019Z,100032.00
2022-08-10T15:00:22.930Z,100040.97
2022-08-10T15:02:56.117Z,100029.78
2022-08-10T15:05:39.762Z,100028.53
2022-08-10T15:08:11.771Z,100040.56
2022-08-10T15:10:40.339Z,100039.19
2022-08-10T15:13:34.901Z,100047.78
2022-08-10T15:16:12.427Z,100017.72
2022-08-10T15:18:58.462Z,100047.88
2022-08-10T15:21:35.254Z,100046.47
2022-08-10T15:24:37.184Z,100047.78
2022-08-10T15:27:08.859Z,100043.38
2022-08-10T15:29:57.677Z,100068.44
2022-08-10T15:32:54.200Z,100057.63
2022-08-10T15:35:44.804Z,100065.59
2022-08-10T15:38:16.366Z,100055.19
2022-08-10T15:40:55.168Z,100050.84
2022-08-10T15:43:28.284Z,100064.94
2022-08-10T15:46:19.307Z,100062.09
2022-08-10T15:49:00.442Z,100061.88
2022-08-10T15:51:53.718Z,100065.97
2022-08-10T15:54:33.385Z,100058.53
2022-08-10T15:57:08.193Z,100058.38
2022-08-10T16:00:06.740Z,100059.94
2022-08-10T16:02:51.144Z,100068.00
2022-08-10T16:06:00.307Z,100066.88
2022-08-10T16:08:17.389Z,100065.88
2022-08-10T16:10:58.450Z,100065.00
2022-08-10T16:13:57.303Z,100065.75
2022-08-10T16:16:20.864Z,100035.94
2022-08-10T16:18:50.527Z,100048.19
2022-08-10T16:21:22.666Z,100063.78
2022-08-10T16:24:14.925Z,100064.31
2022-08-10T16:26:46.702Z,100068.97
2022-08-10T16:29:18.055Z,100062.78
2022-08-10T16:31:56.097Z,100042.94
2022-08-10T16:34:26.263Z,100070.81
2022-08-10T16:37:00.434Z,100074.44
2022-08-10T16:39:59.391Z,100079.69
2022-08-10T16:42:24.119Z,100079.69
2022-08-10T16:44:58.180Z,100088.72
2022-08-10T16:47:29.080Z,100076.50
2022-08-10T16:50:02.690Z,100081.03
2022-08-10T16:52:33.091Z,100081.63
2022-08-10T16:55:16.894Z,100086.41
2022-08-10T16:57:56.713Z,100091.38
2022-08-10T17:00:26.409Z,100094.16
2022-08-10T17:02:58.546Z,100097.53
2022-08-10T17:06:09.605Z,100090.47
2022-08-10T17:08:19.382Z,100085.69
2022-08-10T17:10:46.922Z,100094.63
2022-08-10T17:13:16.807Z,100093.78
2022-08-10T17:15:53.440Z,100064.41
2022-08-10T17:18:29.969Z,100103.38
2022-08-10T17:21:06.652Z,100109.19
2022-08-10T17:23:38.018Z,100100.97
2022-08-10T17:26:12.561Z,100098.06
2022-08-10T17:28:51.337Z,100102.03
2022-08-10T17:31:53.334Z,100102.53
2022-08-10T17:34:29.402Z,100113.41
2022-08-10T17:36:59.707Z,100109.44
2022-08-10T17:39:56.418Z,100101.91
2022-08-10T17:42:27.458Z,100098.75
2022-08-10T17:44:55.941Z,100109.53
2022-08-10T17:47:27.499Z,100110.50
2022-08-10T17:49:57.390Z,100114.03
2022-08-10T17:52:29.389Z,100079.94
2022-08-10T17:55:09.641Z,100117.66
2022-08-10T17:57:39.069Z,100117.28
2022-08-10T18:00:16.019Z,100115.25
2022-08-10T18:02:46.593Z,100108.69
2022-08-10T18:05:15.281Z,100120.06
2022-08-10T18:07:53.702Z,100106.72
2022-08-10T18:10:22.342Z,100113.75
2022-08-10T18:12:53.574Z,100107.06
2022-08-10T18:15:24.922Z,100120.13
2022-08-10T18:17:59.186Z,100119.16
2022-08-10T18:20:36.256Z,100118.31
2022-08-10T18:23:06.398Z,100120.34
2022-08-10T18:25:39.136Z,100118.22
2022-08-10T18:28:11.244Z,100113.50
2022-08-10T18:30:51.235Z,100122.81
2022-08-10T18:33:31.965Z,100121.50
2022-08-10T18:36:03.500Z,100130.31
2022-08-10T18:38:33.807Z,100138.81
2022-08-10T18:41:06.711Z,100110.91
2022-08-10T18:44:10.735Z,100141.97
2022-08-10T18:46:44.386Z,100125.66
2022-08-10T18:49:29.303Z,100113.16
2022-08-10T18:52:02.375Z,100135.19
2022-08-10T18:54:44.222Z,100126.22
2022-08-10T18:57:37.318Z,100124.22
2022-08-10T19:00:13.617Z,100110.50
2022-08-10T19:03:18.614Z,100132.78
2022-08-10T19:05:57.461Z,100144.59
2022-08-10T19:08:50.782Z,100143.91
2022-08-10T19:12:00.167Z,100145.81
2022-08-10T19:14:45.879Z,100149.63
2022-08-10T19:18:03.345Z,100144.06
2022-08-10T19:20:36.618Z,100153.44
2022-08-10T19:23:26.054Z,100161.06
2022-08-10T19:26:37.998Z,100156.34
2022-08-10T19:30:08.375Z,100150.94
2022-08-10T19:32:29.577Z,100124.78
2022-08-10T19:35:19.588Z,100153.69
2022-08-10T19:38:01.162Z,100148.31
2022-08-10T19:40:44.197Z,100145.00
2022-08-10T19:43:20.558Z,100148.38
2022-08-10T19:46:11.804Z,100151.22
2022-08-10T19:49:02.402Z,100147.28
2022-08-10T19:51:39.827Z,100136.94
2022-08-10T19:54:23.183Z,100145.13
2022-08-10T19:57:25.688Z,100146.34
2022-08-10T20:00:18.884Z,100144.66
2022-08-10T20:02:51.276Z,100147.09
2022-08-10T20:05:24.823Z,100138.66
2022-08-10T20:07:52.135Z,100142.78
2022-08-10T20:10:25.990Z,100136.53
2022-08-10T20:13:30.611Z,100138.22
2022-08-10T20:16:07.247Z,100139.34
2022-08-10T20:18:43.829Z,100140.72
2022-08-10T20:21:21.829Z,100137.47
2022-08-10T20:24:05.971Z,100133.88
2022-08-10T20:26:49.085Z,100149.91
2022-08-10T20:29:57.604Z,100156.09
2022-08-10T20:32:49.070Z,100127.34
2022-08-10T20:35:26.991Z,100157.69
2022-08-10T20:38:10.958Z,100131.81
2022-08-10T20:40:52.975Z,100166.63
2022-08-10T20:43:41.365Z,100155.94
2022-08-10T20:46:27.705Z,100158.81
2022-08-10T20:49:31.462Z,100153.63
2022-08-10T20:52:03.216Z,100148.72
2022-08-10T20:54:38.529Z,100162.28
2022-08-10T20:57:54.098Z,100164.69
2022-08-10T21:00:28.074Z,100163.81
2022-08-10T21:03:21.036Z,100166.06
2022-08-10T21:06:07.946Z,100170.72
2022-08-10T21:08:53.526Z,100177.16
2022-08-10T21:11:58.030Z,100175.25
2022-08-10T21:14:47.771Z,100169.47
2022-08-10T21:17:51.750Z,100172.16
2022-08-10T21:20:34.591Z,100153.53
2022-08-10T21:23:08.642Z,100160.34
2022-08-10T21:26:18.451Z,100162.00
2022-08-10T21:29:10.000Z,100156.84
2022-08-10T21:32:14.722Z,100161.53
2022-08-10T21:35:37.438Z,100156.88
2022-08-10T21:38:14.086Z,100161.34
2022-08-10T21:41:17.948Z,100160.66
2022-08-10T21:44:14.536Z,100158.56
2022-08-10T21:47:39.610Z,100149.59
2022-08-10T21:50:27.691Z,100164.78
2022-08-10T21:53:53.322Z,100165.47
2022-08-10T21:56:51.224Z,100158.91
2022-08-10T21:59:56.420Z,100160.84
2022-08-10T22:02:50.281Z,100142.88
2022-08-10T22:05:45.533Z,100161.25
2022-08-10T22:08:36.817Z,100159.66
2022-08-10T22:11:31.120Z,100158.06
2022-08-10T22:14:26.825Z,100165.88
2022-08-10T22:17:59.415Z,100166.94
2022-08-10T22:20:53.191Z,100137.97
2022-08-10T22:24:19.034Z,100172.19
2022-08-10T22:27:12.291Z,100170.78
2022-08-10T22:30:23.146Z,100170.25
2022-08-10T22:33:17.946Z,100170.94
2022-08-10T22:36:24.137Z,100170.97
2022-08-10T22:40:12.055Z,100177.41
2022-08-10T22:43:10.924Z,100176.16
2022-08-10T22:46:07.663Z,100160.06
2022-08-10T22:49:01.838Z,100175.34
2022-08-10T22:51:46.078Z,100171.88
2022-08-10T22:54:43.978Z,100175.34
2022-08-10T22:57:35.895Z,100166.13
2022-08-10T23:00:18.267Z,100178.13
2022-08-10T23:02:59.748Z,100158.78
2022-08-10T23:05:38.507Z,100176.03
2022-08-10T23:08:33.622Z,100174.31
2022-08-10T23:11:12.455Z,100175.72
2022-08-10T23:13:45.122Z,100171.50
2022-08-10T23:16:38.354Z,100170.56
2022-08-10T23:19:10.898Z,100153.56
2022-08-10T23:22:05.611Z,100166.72
2022-08-10T23:24:49.732Z,100159.03
2022-08-10T23:27:39.027Z,100164.13
2022-08-10T23:30:17.022Z,100162.03
2022-08-10T23:32:49.378Z,100161.56
2022-08-10T23:36:13.064Z,100155.38
2022-08-10T23:38:22.047Z,100157.66
2022-08-10T23:40:53.844Z,100161.19
2022-08-10T23:43:46.687Z,100157.34
2022-08-10T23:46:16.202Z,100154.53
2022-08-10T23:48:47.704Z,100155.44
2022-08-10T23:51:17.523Z,100152.59
2022-08-10T23:53:48.212Z,100151.22
2022-08-10T23:56:22.840Z,100140.84
2022-08-10T23:58:57.519Z,100152.75
